Vremea acum in Lipova - Romania

Vrei sa afli care e starea vremii acum in Arad - Romania? Dorim sa iti furnizam starea vremii pentru Arad - Romania. Starea vremii Arad - Romania pentru astazi.

Vremea acum in Lipova

Temperatura: 17 °C

Se simte ca: 17 °C
Innorat: 0 %
Precipitatii: 0 %
Presiune atmosferica: 1015 hPa
Umiditate: 100%
Vizibilitate: 10 km
Vantul bate din N cu 6.1 km/h

Evolutia vremii in Lipova pe ore

Ora: 04:00
Ceață
Temperatura: 18.6°C
Sansa de precipitatii: 0%
Ora Descriere Temp Se simte Precipitatii Umiditate Vant
00:00Ceață19.6°19.6°50%91%NNE 8.6 KM/H
01:00Ploi pe porţiuni în apropiere19.1°19.1°25%93%NNE 8.3 KM/H
02:00Ceață18.7°18.7°0%94%NNE 8.3 KM/H
03:00Parțial noros18.6°18.6°0%94%NE 6.8 KM/H
04:00Ceață18.6°18.6°0%93%NE 5.8 KM/H
05:00Parțial noros18.5°18.5°0%93%NE 4.3 KM/H
06:00Parțial noros19.9°19.9°0%89%NE 4 KM/H
07:00Parțial noros21.3°21.3°0%85%NNE 3.6 KM/H
08:00Parțial noros22.7°24.9°0%81%N 3.2 KM/H
09:00Parțial noros24.1°26.1°0%76%N 4 KM/H
10:00Parțial noros25.4°27.3°0%70%N 5 KM/H
11:00Parțial noros26.8°28.5°0%65%NNE 5.8 KM/H
12:00Parțial noros27.6°29.3°0%62%SE 5.8 KM/H
13:00Parțial noros28.3°30°0%58%SW 6.1 KM/H
14:00Parțial noros29.1°30.8°0%55%NNW 6.1 KM/H
15:00Tunete în apropiere29.1°30.9°27%56%NNW 6.1 KM/H
16:00Parțial noros29.1°30.9°53%56%N 6.1 KM/H
17:00Tunete în apropiere29.1°31°80%56%N 6.1 KM/H
18:00Parțial noros27.8°30.4°53%64%SW 6.5 KM/H
19:00Tunete în apropiere26.4°29.7°27%71%ESE 6.8 KM/H
20:00Parțial noros25.1°29.1°0%78%N 7.2 KM/H
21:00Ploi pe porţiuni în apropiere24.1°27.6°26%80%NNE 6.1 KM/H
22:00Parțial noros23°26°52%82%NE 5 KM/H
23:00Ploi pe porţiuni în apropiere22°24.5°78%85%NE 4 KM/H